Time;durP1;ratioP1;P1;durP2;ratioP2;P2;SDS_P1;SDS_P2;PMS_P1;PMS_P2;Temp;Humidity;BMP_temperature;BMP_pressure;BME280_temperature;BME280_humidity;BME280_pressure;Samples;Min_cycle;Max_cycle;Signal;HPM_P1;HPM_P2
2021/12/02 00:01:00;;;;;;;;;;;;;;;20.64;39.53;101953.63;4199012;28;19971;-72
2021/12/02 00:03:04;;;;;;;;;;;;;;;20.63;39.57;101952.78;4199610;28;19994;-75
2021/12/02 00:05:05;;;;;;;;;;;;;;;20.62;39.61;101951.09;4199033;28;19966;-74
2021/12/02 00:07:07;;;;;;;;;;;;;;;20.64;39.58;101954.44;4198522;28;19921;-75
2021/12/02 00:09:08;;;;;;;;;;;;;;;20.64;39.83;101954.44;4199795;28;20321;-74
2021/12/02 00:11:09;;;;;;;;;;;;;;;20.63;39.79;101947.22;4199133;28;19924;-73
2021/12/02 00:13:11;;;;;;;;;;;;;;;20.63;39.60;101938.88;4199872;28;20302;-75
2021/12/02 00:15:22;;;;;;;;;;;;;;;20.63;39.72;101941.66;4219885;28;19924;-75
2021/12/02 00:17:27;;;;;;;;;;;;;;;20.64;39.48;101943.31;4201054;28;19978;-73
2021/12/02 00:21:51;;;;;;;;;;;;;;;20.63;39.63;101947.22;4233899;28;19916;-74
2021/12/02 00:24:03;;;;;;;;;;;;;;;20.63;39.81;101946.38;4228371;28;19916;-73
2021/12/02 00:26:15;;;;;;;;;;;;;;;20.61;39.98;101943.81;4215696;28;19945;-74
2021/12/02 00:28:16;;;;;;;;;;;;;;;20.61;39.85;101941.03;4215046;28;19923;-73
2021/12/02 00:30:18;;;;;;;;;;;;;;;20.62;39.72;101937.19;4215544;28;19969;-71
2021/12/02 00:32:19;;;;;;;;;;;;;;;20.62;39.73;101936.31;4216031;28;19961;-71
2021/12/02 00:34:22;;;;;;;;;;;;;;;20.62;39.71;101934.41;4211693;28;19920;-72
2021/12/02 00:36:24;;;;;;;;;;;;;;;20.62;39.65;101927.97;4215190;28;20312;-73
2021/12/02 00:38:26;;;;;;;;;;;;;;;20.61;39.82;101921.59;4215523;28;20328;-74
2021/12/02 00:40:27;;;;;;;;;;;;;;;20.61;39.81;101929.91;4215438;28;19917;-76
2021/12/02 00:42:29;;;;;;;;;;;;;;;20.61;39.96;101938.25;4214837;28;19920;-73
2021/12/02 00:44:34;;;;;;;;;;;;;;;20.60;39.66;101939.38;4202327;28;19925;-74
2021/12/02 00:46:36;;;;;;;;;;;;;;;20.59;39.93;101929.34;4205856;28;19947;-76
2021/12/02 00:48:37;;;;;;;;;;;;;;;20.58;40.10;101935.19;4212662;28;19977;-76
2021/12/02 00:50:41;;;;;;;;;;;;;;;20.58;40.09;101938.78;4210178;28;19924;-74
2021/12/02 00:52:42;;;;;;;;;;;;;;;20.57;40.17;101937.09;4209191;28;19934;-72
2021/12/02 00:54:46;;;;;;;;;;;;;;;20.58;40.00;101938.78;4224418;28;19961;-72
2021/12/02 00:56:47;;;;;;;;;;;;;;;20.58;40.32;101941.56;4209015;28;19921;-74
2021/12/02 00:58:49;;;;;;;;;;;;;;;20.58;40.20;101933.22;4208177;28;20367;-72
2021/12/02 01:00:52;;;;;;;;;;;;;;;20.59;40.22;101931.28;4202612;28;19966;-74
2021/12/02 01:02:54;;;;;;;;;;;;;;;20.59;39.99;101929.34;4215823;28;20262;-73
2021/12/02 01:04:58;;;;;;;;;;;;;;;20.58;39.95;101921.28;4225482;28;19920;-75
2021/12/02 01:06:59;;;;;;;;;;;;;;;20.58;40.23;101916.56;4215319;28;20448;-74
2021/12/02 01:09:00;;;;;;;;;;;;;;;20.58;39.97;101911.00;4202904;28;20493;-72
2021/12/02 01:11:01;;;;;;;;;;;;;;;20.58;39.90;101907.38;4198383;28;19916;-71
2021/12/02 01:13:02;;;;;;;;;;;;;;;20.58;40.14;101902.66;4209435;28;20313;-72
2021/12/02 01:15:04;;;;;;;;;;;;;;;20.57;40.27;101903.72;4215104;28;19912;-74
2021/12/02 01:17:06;;;;;;;;;;;;;;;20.56;40.01;101902.03;4215010;28;19962;-71
2021/12/02 01:19:07;;;;;;;;;;;;;;;20.58;39.98;101897.09;4217226;28;19970;-73
2021/12/02 01:21:13;;;;;;;;;;;;;;;20.57;39.90;101889.81;4216868;28;20289;-71
2021/12/02 01:23:16;;;;;;;;;;;;;;;20.57;40.16;101887.03;4218400;28;19916;-74
2021/12/02 01:25:18;;;;;;;;;;;;;;;20.56;39.95;101885.34;4218643;28;19945;-76
2021/12/02 01:27:22;;;;;;;;;;;;;;;20.59;39.99;101879.28;4217885;28;19965;-74
2021/12/02 01:29:24;;;;;;;;;;;;;;;20.57;40.11;101884.25;4218365;28;19916;-74
2021/12/02 01:31:30;;;;;;;;;;;;;;;20.57;40.07;101878.69;4218404;28;19916;-74
2021/12/02 01:33:32;;;;;;;;;;;;;;;20.57;40.11;101887.03;4218044;28;20389;-74
2021/12/02 01:35:36;;;;;;;;;;;;;;;20.57;40.00;101884.25;4230158;28;19920;-74
2021/12/02 01:37:38;;;;;;;;;;;;;;;20.57;40.44;101881.47;4217704;28;19924;-73
2021/12/02 01:39:40;;;;;;;;;;;;;;;20.57;40.36;101887.03;4218292;28;19920;-75
2021/12/02 01:41:46;;;;;;;;;;;;;;;20.58;40.23;101880.41;4218090;28;20358;-69
2021/12/02 01:43:49;;;;;;;;;;;;;;;20.56;40.34;101875.06;4218043;28;19916;-71
2021/12/02 01:45:50;;;;;;;;;;;;;;;20.56;40.27;101879.78;4218059;28;19920;-74
2021/12/02 01:47:56;;;;;;;;;;;;;;;20.56;40.24;101871.44;4218631;28;19916;-73
2021/12/02 01:50:00;;;;;;;;;;;;;;;20.54;40.26;101877.28;4221162;28;19973;-76
2021/12/02 01:52:02;;;;;;;;;;;;;;;20.54;40.57;101870.88;4216395;28;19989;-71
2021/12/02 01:54:07;;;;;;;;;;;;;;;20.55;40.71;101867.00;4202589;28;20375;-73
2021/12/02 01:56:10;;;;;;;;;;;;;;;20.55;40.45;101878.97;4211496;28;20328;-74
2021/12/02 01:58:15;;;;;;;;;;;;;;;20.55;40.61;101878.13;4203966;28;19969;-72
2021/12/02 02:00:19;;;;;;;;;;;;;;;20.54;40.73;101877.28;4206232;28;20348;-73
2021/12/02 02:02:21;;;;;;;;;;;;;;;20.55;40.61;101872.56;4212138;28;19994;-75
2021/12/02 02:04:23;;;;;;;;;;;;;;;20.54;40.78;101870.88;4200358;28;19955;-72
2021/12/02 02:06:27;;;;;;;;;;;;;;;20.54;40.83;101873.66;4206825;28;19920;-77
2021/12/02 02:08:29;;;;;;;;;;;;;;;20.52;41.02;101870.28;4217664;28;19924;-73
2021/12/02 02:10:36;;;;;;;;;;;;;;;20.54;40.59;101865.31;4213392;28;19974;-72
2021/12/02 02:12:37;;;;;;;;;;;;;;;20.52;41.06;101854.44;4213663;28;19915;-73
2021/12/02 02:14:39;;;;;;;;;;;;;;;20.53;40.83;101858.09;4217353;28;19920;-75
2021/12/02 02:16:41;;;;;;;;;;;;;;;20.54;41.11;101854.19;4216762;28;20383;-73
2021/12/02 02:18:42;;;;;;;;;;;;;;;20.52;41.17;101854.44;4221949;28;19988;-73
2021/12/02 02:21:00;;;;;;;;;;;;;;;20.21;41.13;101805.88;4234502;27;19987;-75
2021/12/02 02:23:01;;;;;;;;;;;;;;;20.53;40.92;101846.97;4223818;28;20336;-70
2021/12/02 02:25:02;;;;;;;;;;;;;;;20.52;41.03;101842.47;4234293;28;20408;-74
2021/12/02 02:27:05;;;;;;;;;;;;;;;20.51;41.00;101840.78;4222525;27;20371;-74
2021/12/02 02:29:06;;;;;;;;;;;;;;;20.52;41.30;101854.44;4211065;28;19950;-74
2021/12/02 02:31:07;;;;;;;;;;;;;;;20.53;41.09;101852.53;4209498;28;19920;-78
2021/12/02 02:33:12;;;;;;;;;;;;;;;20.52;41.13;101851.66;4215427;28;20328;-73
2021/12/02 02:35:14;;;;;;;;;;;;;;;20.53;41.14;101852.53;4216003;28;19984;-74
2021/12/02 02:37:15;;;;;;;;;;;;;;;20.52;41.25;101848.03;4207760;28;19928;-75
2021/12/02 02:39:16;;;;;;;;;;;;;;;20.52;41.96;101845.25;4211406;28;19920;-70
2021/12/02 02:41:20;;;;;;;;;;;;;;;20.51;42.00;101844.41;4214965;28;19966;-74
2021/12/02 02:43:23;;;;;;;;;;;;;;;20.51;42.77;101843.56;4215459;28;19920;-73
2021/12/02 02:45:25;;;;;;;;;;;;;;;20.50;43.45;101841.91;4206340;28;19920;-75
2021/12/02 02:47:29;;;;;;;;;;;;;;;20.46;44.52;101829.56;4208778;28;20363;-63
2021/12/02 02:49:35;;;;;;;;;;;;;;;20.42;44.94;101825.63;4201320;28;20291;-65
2021/12/02 02:51:38;;;;;;;;;;;;;;;20.38;45.35;101827.22;4204535;28;19920;-63
2021/12/02 02:53:39;;;;;;;;;;;;;;;20.35;45.47;101834.16;4199847;28;20543;-65
2021/12/02 02:55:41;;;;;;;;;;;;;;;20.34;45.78;101826.06;4199671;28;19982;-65
2021/12/02 02:58:00;;;;;;;;;;;;;;;20.30;45.87;101821.03;4199714;28;19962;-62
2021/12/02 03:00:15;;;;;;;;;;;;;;;20.30;46.28;101803.50;4212431;28;19920;-65
2021/12/02 03:02:27;;;;;;;;;;;;;;;20.29;46.33;101785.97;4216473;28;19924;-66
2021/12/02 03:07:02;;;;;;;;;;;;;;;20.27;46.41;101765.94;4211432;28;19950;-65
2021/12/02 03:09:13;;;;;;;;;;;;;;;20.26;46.27;101778.16;4200565;28;20367;-64
2021/12/02 03:11:16;;;;;;;;;;;;;;;20.27;46.16;101793.72;4200150;28;19920;-65
2021/12/02 03:13:35;;;;;;;;;;;;;;;20.26;46.16;101785.66;4215384;28;20341;-64
2021/12/02 03:17:56;;;;;;;;;;;;;;;20.25;46.41;101779.25;4215654;28;19920;-64
2021/12/02 03:19:58;;;;;;;;;;;;;;;20.26;46.27;101786.50;4207881;28;19949;-64
2021/12/02 03:22:00;;;;;;;;;;;;;;;20.25;46.39;101782.03;4216400;28;19920;-64
2021/12/02 03:24:01;;;;;;;;;;;;;;;20.24;46.14;101780.34;4210285;28;19966;-64
2021/12/02 03:26:03;;;;;;;;;;;;;;;20.25;45.87;101765.38;4214391;28;19916;-64
2021/12/02 03:28:05;;;;;;;;;;;;;;;20.25;45.97;101767.28;4206700;28;19920;-70
2021/12/02 03:30:06;;;;;;;;;;;;;;;20.25;45.85;101767.28;4213190;28;19920;-64
2021/12/02 03:32:09;;;;;;;;;;;;;;;20.25;45.79;101767.28;4199489;28;20664;-65
2021/12/02 03:34:10;;;;;;;;;;;;;;;20.23;45.97;101750.88;4211507;28;19973;-65
2021/12/02 03:36:13;;;;;;;;;;;;;;;20.24;45.72;101755.31;4200039;28;19974;-64
2021/12/02 03:38:14;;;;;;;;;;;;;;;20.24;45.62;101735.03;4199005;28;19924;-65
2021/12/02 03:40:15;;;;;;;;;;;;;;;20.24;45.61;101738.66;4200657;28;20023;-66
2021/12/02 03:42:16;;;;;;;;;;;;;;;20.25;45.60;101733.94;4204159;28;19921;-65
2021/12/02 03:44:17;;;;;;;;;;;;;;;20.23;45.53;101725.84;4209358;28;19920;-65
2021/12/02 03:46:23;;;;;;;;;;;;;;;20.23;45.51;101731.41;4211271;28;19969;-65
2021/12/02 03:48:24;;;;;;;;;;;;;;;20.23;45.50;101725.03;4205388;28;19921;-62
2021/12/02 03:50:25;;;;;;;;;;;;;;;20.23;45.54;101722.25;4212159;28;20021;-63
2021/12/02 03:52:28;;;;;;;;;;;;;;;20.23;45.22;101714.75;4216062;28;19985;-64
2021/12/02 03:54:29;;;;;;;;;;;;;;;20.22;45.24;101707.50;4200843;28;20341;-63
2021/12/02 03:56:30;;;;;;;;;;;;;;;20.23;45.51;101713.91;4198849;28;19917;-65
2021/12/02 03:58:31;;;;;;;;;;;;;;;20.22;45.08;101718.63;4198887;28;19920;-63
2021/12/02 04:00:32;;;;;;;;;;;;;;;20.22;45.12;101726.97;4201859;28;20011;-63
2021/12/02 04:02:33;;;;;;;;;;;;;;;20.23;45.14;101728.63;4203460;28;19920;-65
2021/12/02 04:04:34;;;;;;;;;;;;;;;20.23;44.96;101720.31;4215543;28;20340;-63
2021/12/02 04:06:35;;;;;;;;;;;;;;;20.23;44.80;101725.84;4215462;28;19916;-63
2021/12/02 04:08:42;;;;;;;;;;;;;;;20.22;44.76;101724.19;4215124;28;19916;-64
2021/12/02 04:10:47;;;;;;;;;;;;;;;20.21;44.70;101722.50;4215221;28;19969;-63
2021/12/02 04:13:14;;;;;;;;;;;;;;;20.20;44.63;101725.53;4208058;28;19920;-64
2021/12/02 04:15:23;;;;;;;;;;;;;;;20.20;44.66;101729.13;4203250;28;19924;-63
2021/12/02 04:17:43;;;;;;;;;;;;;;;20.20;44.57;101722.75;4203528;28;19969;-62
2021/12/02 04:19:44;;;;;;;;;;;;;;;20.20;44.76;101720.81;4198634;28;19920;-64
2021/12/02 04:21:45;;;;;;;;;;;;;;;20.19;44.77;101705.22;4199145;28;19970;-64
2021/12/02 04:23:46;;;;;;;;;;;;;;;20.20;44.43;101703.28;4198756;28;19916;-64
2021/12/02 04:25:47;;;;;;;;;;;;;;;20.19;44.72;101690.50;4198643;28;20371;-63
2021/12/02 04:27:48;;;;;;;;;;;;;;;20.19;44.32;101696.91;4210342;28;20375;-63
2021/12/02 04:29:49;;;;;;;;;;;;;;;20.20;44.35;101692.19;4211770;28;19985;-63
2021/12/02 04:31:54;;;;;;;;;;;;;;;20.19;44.14;101696.91;4212188;28;20355;-63
2021/12/02 04:33:55;;;;;;;;;;;;;;;20.19;44.52;101680.22;4201867;28;19924;-64
2021/12/02 04:35:57;;;;;;;;;;;;;;;20.19;44.24;101679.38;4215104;28;19927;-64
2021/12/02 04:37:58;;;;;;;;;;;;;;;20.19;43.97;101677.44;4202713;28;20264;-64
2021/12/02 04:39:59;;;;;;;;;;;;;;;20.18;43.96;101670.22;4205789;28;19974;-63
2021/12/02 04:42:00;;;;;;;;;;;;;;;20.18;44.07;101675.78;4198563;28;19939;-63
2021/12/02 04:44:01;;;;;;;;;;;;;;;20.17;44.24;101665.75;4205840;28;19958;-60
2021/12/02 04:46:03;;;;;;;;;;;;;;;20.17;43.86;101662.97;4209444;28;19924;-62
2021/12/02 04:48:04;;;;;;;;;;;;;;;20.16;43.87;101658.53;4201545;28;20026;-64
2021/12/02 04:50:06;;;;;;;;;;;;;;;20.17;44.17;101654.66;4198693;28;19921;-63
2021/12/02 04:52:08;;;;;;;;;;;;;;;20.17;43.91;101660.19;4199484;28;19920;-63
2021/12/02 04:54:09;;;;;;;;;;;;;;;20.17;43.99;101664.94;4203042;28;19924;-63
2021/12/02 04:56:10;;;;;;;;;;;;;;;20.17;43.75;101651.88;4202782;28;19997;-64
2021/12/02 04:58:11;;;;;;;;;;;;;;;20.17;43.68;101654.66;4212020;28;19916;-64
2021/12/02 05:00:13;;;;;;;;;;;;;;;20.16;43.85;101641.84;4212873;28;19920;-64
2021/12/02 05:02:14;;;;;;;;;;;;;;;20.16;43.61;101647.41;4199692;28;19978;-65
2021/12/02 05:04:15;;;;;;;;;;;;;;;20.17;43.81;101637.13;4213928;28;19947;-64
2021/12/02 05:06:16;;;;;;;;;;;;;;;20.15;43.54;101645.72;4206079;28;19927;-64
2021/12/02 05:08:17;;;;;;;;;;;;;;;20.16;43.85;101641.84;4214329;28;19965;-64
2021/12/02 05:10:18;;;;;;;;;;;;;;;20.14;43.64;101655.16;4211715;28;20281;-66
2021/12/02 05:12:21;;;;;;;;;;;;;;;20.16;43.79;101649.31;4198141;28;19954;-65
2021/12/02 05:14:22;;;;;;;;;;;;;;;20.14;43.89;101634.88;4217987;28;20286;-62
2021/12/02 05:16:23;;;;;;;;;;;;;;;20.15;43.73;101647.66;4213020;28;20022;-64
2021/12/02 05:18:24;;;;;;;;;;;;;;;20.15;43.38;101630.97;4212830;28;19920;-63
2021/12/02 05:20:25;;;;;;;;;;;;;;;20.16;43.67;101627.97;4212603;28;19920;-63
2021/12/02 05:22:26;;;;;;;;;;;;;;;20.15;43.39;101633.75;4198265;28;19970;-64
2021/12/02 05:24:27;;;;;;;;;;;;;;;20.14;43.50;101630.16;4198075;28;20389;-64
2021/12/02 05:26:28;;;;;;;;;;;;;;;20.14;43.32;101627.38;4206019;28;19916;-64
2021/12/02 05:28:29;;;;;;;;;;;;;;;20.14;43.29;101610.69;4212679;28;20263;-64
2021/12/02 05:30:30;;;;;;;;;;;;;;;20.15;43.32;101629.03;4200393;28;20015;-63
2021/12/02 05:32:31;;;;;;;;;;;;;;;20.15;43.35;101631.81;4196815;28;19989;-63
2021/12/02 05:34:32;;;;;;;;;;;;;;;20.13;43.48;101606.25;4209037;28;20428;-64
2021/12/02 05:36:36;;;;;;;;;;;;;;;20.14;43.19;101604.31;4213768;28;19920;-62
2021/12/02 05:38:38;;;;;;;;;;;;;;;20.13;43.13;101595.13;4209708;28;19954;-63
2021/12/02 05:40:39;;;;;;;;;;;;;;;20.12;43.41;101601.78;4214717;28;19916;-64
2021/12/02 05:42:43;;;;;;;;;;;;;;;20.13;43.50;101597.06;4200550;28;19966;-64
2021/12/02 05:44:45;;;;;;;;;;;;;;;20.13;43.22;101583.19;4208249;28;20326;-62
2021/12/02 05:46:46;;;;;;;;;;;;;;;20.11;43.19;101616.75;4197621;28;19920;-63
2021/12/02 05:48:47;;;;;;;;;;;;;;;20.11;43.38;101583.41;4197929;28;19924;-63
2021/12/02 05:50:49;;;;;;;;;;;;;;;20.12;43.17;101599.00;4198700;28;20265;-63
2021/12/02 05:52:50;;;;;;;;;;;;;;;20.12;43.28;101595.41;4197907;28;19962;-63
2021/12/02 05:54:52;;;;;;;;;;;;;;;20.11;43.35;101591.75;4206193;28;19920;-64
2021/12/02 05:56:53;;;;;;;;;;;;;;;20.11;43.23;101583.41;4213935;28;20289;-64
2021/12/02 05:58:54;;;;;;;;;;;;;;;20.12;43.39;101590.69;4211103;28;19917;-62
2021/12/02 06:00:55;;;;;;;;;;;;;;;20.10;43.38;101570.63;4214807;28;20268;-62
2021/12/02 06:02:56;;;;;;;;;;;;;;;20.10;43.17;101559.50;4208994;28;19962;-63
2021/12/02 06:04:57;;;;;;;;;;;;;;;20.10;43.08;101570.63;4200711;28;20383;-63
2021/12/02 06:06:58;;;;;;;;;;;;;;;20.10;43.23;101570.63;4200591;28;20360;-63
2021/12/02 06:08:59;;;;;;;;;;;;;;;20.10;42.92;101565.06;4213846;28;19927;-63
2021/12/02 06:11:06;;;;;;;;;;;;;;;20.08;42.89;101556.16;4217524;28;20026;-58
2021/12/02 06:13:07;;;;;;;;;;;;;;;20.10;43.03;101550.34;4206104;28;20436;-64
2021/12/02 06:15:11;;;;;;;;;;;;;;;20.08;43.21;101539.50;4216833;28;20416;-64
2021/12/02 06:17:13;;;;;;;;;;;;;;;20.08;42.89;101535.88;4215810;28;20285;-64
2021/12/02 06:19:13;;;;;;;;;;;;;;;20.07;43.31;101526.72;4217238;28;19924;-64
2021/12/02 06:21:15;;;;;;;;;;;;;;;20.09;43.16;101526.44;4217053;28;20305;-64
2021/12/02 06:23:16;;;;;;;;;;;;;;;20.08;42.90;101517.28;4203201;28;19946;-64
2021/12/02 06:27:20;;;;;;;;;;;;;;;20.09;43.06;101521.72;4210910;28;19948;-64
2021/12/02 06:29:22;;;;;;;;;;;;;;;20.08;42.78;101520.06;4200549;28;20329;-61
2021/12/02 06:31:24;;;;;;;;;;;;;;;20.07;42.89;101515.59;4201071;28;19917;-63
2021/12/02 06:33:25;;;;;;;;;;;;;;;20.08;42.83;101511.72;4200445;28;19921;-63
2021/12/02 06:35:26;;;;;;;;;;;;;;;20.08;42.77;101495.03;4208482;28;19966;-64
2021/12/02 06:37:27;;;;;;;;;;;;;;;20.06;42.69;101494.44;4216484;28;20351;-64
2021/12/02 06:39:28;;;;;;;;;;;;;;;20.07;43.04;101510.06;4216589;28;19923;-64
2021/12/02 06:41:29;;;;;;;;;;;;;;;20.07;42.74;101498.94;4200578;28;20367;-63
2021/12/02 06:43:30;;;;;;;;;;;;;;;20.07;42.87;101493.38;4200090;28;19916;-64
2021/12/02 06:45:32;;;;;;;;;;;;;;;20.06;43.00;101483.34;4215876;28;19966;-65
2021/12/02 06:47:42;;;;;;;;;;;;;;;20.06;42.71;101477.78;4214050;28;20029;-63
2021/12/02 06:49:43;;;;;;;;;;;;;;;20.05;42.99;101467.78;4215373;28;19974;-64
2021/12/02 06:51:44;;;;;;;;;;;;;;;20.06;42.91;101452.78;4217154;28;19916;-62
2021/12/02 06:53:45;;;;;;;;;;;;;;;20.05;42.60;101434.44;4216079;28;20252;-64
2021/12/02 06:55:46;;;;;;;;;;;;;;;20.05;42.81;101428.88;4200166;28;19920;-64
2021/12/02 06:57:48;;;;;;;;;;;;;;;20.04;42.98;101432.78;4206633;28;20478;-64
2021/12/02 06:59:49;;;;;;;;;;;;;;;20.04;42.92;101430.00;4213588;28;19973;-64
2021/12/02 07:01:50;;;;;;;;;;;;;;;20.03;42.96;101433.88;4200131;28;19917;-64
2021/12/02 07:03:51;;;;;;;;;;;;;;;20.02;42.82;101429.41;4200823;28;19916;-65
2021/12/02 07:05:55;;;;;;;;;;;;;;;20.02;42.83;101405.25;4216529;28;19920;-64
2021/12/02 07:07:56;;;;;;;;;;;;;;;20.00;42.88;101410.22;4214222;28;19949;-64
2021/12/02 07:09:59;;;;;;;;;;;;;;;20.01;42.88;101409.13;4206767;28;19924;-64
2021/12/02 07:12:00;;;;;;;;;;;;;;;20.02;42.91;101401.63;4205898;28;20341;-64
2021/12/02 07:14:06;;;;;;;;;;;;;;;20.02;42.98;101412.72;4212840;28;19920;-63
2021/12/02 07:16:08;;;;;;;;;;;;;;;20.02;42.61;101412.72;4203504;28;20371;-63
2021/12/02 07:18:13;;;;;;;;;;;;;;;20.02;42.50;101418.28;4206969;28;20330;-64
2021/12/02 07:20:14;;;;;;;;;;;;;;;20.02;42.58;101421.06;4199866;28;19995;-64
2021/12/02 07:22:15;;;;;;;;;;;;;;;20.01;42.50;101433.28;4199598;28;20019;-62
2021/12/02 07:24:16;;;;;;;;;;;;;;;20.00;42.77;101428.84;4199639;28;19916;-63
2021/12/02 07:26:17;;;;;;;;;;;;;;;20.00;42.88;101426.06;4199866;28;19982;-63
2021/12/02 07:28:19;;;;;;;;;;;;;;;20.00;42.83;101424.13;4199586;28;19924;-63
2021/12/02 07:30:20;;;;;;;;;;;;;;;20.00;42.88;101413.00;4212172;28;19958;-64
2021/12/02 07:32:24;;;;;;;;;;;;;;;19.98;42.62;101400.50;4215938;28;19916;-61
2021/12/02 07:34:32;;;;;;;;;;;;;;;19.99;42.53;101396.63;4216332;28;19993;-62
2021/12/02 07:36:33;;;;;;;;;;;;;;;19.99;42.56;101403.00;4200304;28;19969;-63
2021/12/02 07:38:36;;;;;;;;;;;;;;;19.98;42.84;101403.28;4199210;28;20025;-63
2021/12/02 07:40:40;;;;;;;;;;;;;;;19.99;42.76;101399.38;4214622;28;19920;-63
2021/12/02 07:42:41;;;;;;;;;;;;;;;19.99;42.42;101391.06;4216367;28;19990;-60
2021/12/02 07:44:42;;;;;;;;;;;;;;;19.99;42.48;101385.50;4206145;28;19932;-63
2021/12/02 07:46:46;;;;;;;;;;;;;;;19.98;42.43;101378.28;4198925;28;20345;-63
2021/12/02 07:48:49;;;;;;;;;;;;;;;19.98;42.72;101375.50;4214411;28;19973;-65
2021/12/02 07:50:51;;;;;;;;;;;;;;;19.97;42.48;101346.03;4215830;28;19969;-63
2021/12/02 07:52:54;;;;;;;;;;;;;;;19.97;42.77;101338.53;4208272;28;20397;-63
2021/12/02 07:54:55;;;;;;;;;;;;;;;19.97;42.40;101323.81;4199024;28;19921;-63
2021/12/02 07:56:56;;;;;;;;;;;;;;;19.96;42.74;101309.06;4198938;28;19916;-63
2021/12/02 07:58:57;;;;;;;;;;;;;;;19.96;42.57;101314.63;4199307;28;20279;-64
2021/12/02 08:01:02;;;;;;;;;;;;;;;19.95;42.43;101318.53;4215756;28;19970;-64
2021/12/02 08:03:06;;;;;;;;;;;;;;;19.95;42.32;101318.53;4208807;28;19921;-63
2021/12/02 08:05:07;;;;;;;;;;;;;;;19.96;42.59;101314.63;4199221;28;20321;-63
2021/12/02 08:07:08;;;;;;;;;;;;;;;19.96;42.38;101302.69;4199498;28;19978;-63
2021/12/02 08:09:14;;;;;;;;;;;;;;;19.97;42.50;101290.47;4200831;28;20355;-64
2021/12/02 08:11:15;;;;;;;;;;;;;;;19.95;42.58;101278.81;4216090;28;19924;-64
2021/12/02 08:13:16;;;;;;;;;;;;;;;19.95;42.68;101271.31;4213021;28;20333;-65
2021/12/02 08:15:20;;;;;;;;;;;;;;;19.94;42.46;101266.03;4208084;28;19921;-64
2021/12/02 08:17:21;;;;;;;;;;;;;;;19.93;42.61;101264.31;4212959;28;19928;-62
2021/12/02 08:19:22;;;;;;;;;;;;;;;19.94;42.61;101249.34;4210786;28;20362;-62
2021/12/02 08:21:23;;;;;;;;;;;;;;;19.93;42.35;101237.41;4215276;28;20365;-63
2021/12/02 08:23:25;;;;;;;;;;;;;;;19.94;42.40;101233.53;4207765;28;20027;-63
2021/12/02 08:25:29;;;;;;;;;;;;;;;19.94;42.36;101260.47;4199056;28;19916;-63
2021/12/02 08:27:31;;;;;;;;;;;;;;;19.94;42.36;101254.91;4215351;28;20021;-64
2021/12/02 08:29:32;;;;;;;;;;;;;;;19.94;42.56;101243.81;4215265;28;20376;-63
2021/12/02 08:31:34;;;;;;;;;;;;;;;19.93;42.52;101236.53;4210637;28;19950;-63
2021/12/02 08:33:35;;;;;;;;;;;;;;;19.94;42.50;101241.03;4215345;28;19916;-64
2021/12/02 08:35:36;;;;;;;;;;;;;;;19.95;42.27;101248.25;4209857;28;19920;-63
2021/12/02 08:37:41;;;;;;;;;;;;;;;19.94;42.56;101241.03;4214822;28;19965;-64
2021/12/02 08:39:43;;;;;;;;;;;;;;;19.93;42.44;101225.44;4215354;28;19920;-63
2021/12/02 08:41:48;;;;;;;;;;;;;;;19.92;42.18;101209.88;4211721;28;19946;-62
2021/12/02 08:43:54;;;;;;;;;;;;;;;19.92;42.33;101201.56;4199491;28;19920;-63
2021/12/02 08:45:55;;;;;;;;;;;;;;;19.92;42.33;101191.28;4208592;28;19966;-63
2021/12/02 08:47:56;;;;;;;;;;;;;;;19.92;42.18;101190.44;4215392;28;20283;-62
2021/12/02 08:49:58;;;;;;;;;;;;;;;19.90;42.29;101182.38;4203618;28;19981;-63
2021/12/02 08:51:59;;;;;;;;;;;;;;;19.91;42.38;101188.78;4198992;28;20122;-63
2021/12/02 08:54:00;;;;;;;;;;;;;;;19.92;42.63;101187.66;4199386;28;20446;-64
2021/12/02 08:56:02;;;;;;;;;;;;;;;19.92;42.47;101190.44;4199758;28;19966;-64
2021/12/02 08:58:04;;;;;;;;;;;;;;;19.91;42.54;101188.78;4199093;28;19962;-63
2021/12/02 09:00:07;;;;;;;;;;;;;;;19.92;42.21;101187.66;4205978;28;19991;-62
2021/12/02 09:02:11;;;;;;;;;;;;;;;19.90;42.54;101179.63;4198576;28;19924;-64
2021/12/02 09:04:12;;;;;;;;;;;;;;;19.90;42.55;101181.56;4199756;28;19916;-63
2021/12/02 09:06:14;;;;;;;;;;;;;;;19.89;42.56;101174.34;4214819;28;19916;-63
2021/12/02 09:08:16;;;;;;;;;;;;;;;19.89;42.46;101177.13;4214175;28;19920;-63
2021/12/02 09:10:21;;;;;;;;;;;;;;;19.90;42.27;101176.00;4214651;28;20010;-63
2021/12/02 09:12:22;;;;;;;;;;;;;;;19.88;42.52;101184.59;4210890;28;20390;-62
2021/12/02 09:14:24;;;;;;;;;;;;;;;19.88;42.20;101186.53;4201123;28;19933;-63
2021/12/02 09:16:25;;;;;;;;;;;;;;;19.88;42.48;101195.69;4198786;28;19920;-63
2021/12/02 09:18:26;;;;;;;;;;;;;;;19.88;42.59;101198.47;4198005;28;19921;-63
2021/12/02 09:20:27;;;;;;;;;;;;;;;19.88;42.53;101194.84;4211973;28;19921;-63
2021/12/02 09:22:28;;;;;;;;;;;;;;;19.87;42.30;101188.47;4213608;28;19916;-63
2021/12/02 09:24:29;;;;;;;;;;;;;;;19.86;42.38;101192.34;4210005;28;19929;-63
2021/12/02 09:26:30;;;;;;;;;;;;;;;19.86;42.30;101192.34;4198054;28;20282;-63
2021/12/02 09:28:32;;;;;;;;;;;;;;;19.86;42.32;101185.97;4203606;28;19927;-63
2021/12/02 09:30:35;;;;;;;;;;;;;;;19.86;42.41;101180.41;4213903;28;20355;-64
2021/12/02 09:32:36;;;;;;;;;;;;;;;19.85;42.23;101175.97;4197136;28;19954;-64
2021/12/02 09:34:37;;;;;;;;;;;;;;;19.85;42.40;101162.09;4199720;28;19920;-64
2021/12/02 09:36:39;;;;;;;;;;;;;;;19.85;42.33;101164.88;4198975;28;19954;-62
2021/12/02 09:38:40;;;;;;;;;;;;;;;19.85;42.27;101156.53;4214482;28;19985;-63
2021/12/02 09:40:42;;;;;;;;;;;;;;;19.84;42.32;101168.72;4216120;28;19920;-62
2021/12/02 09:42:43;;;;;;;;;;;;;;;19.84;42.26;101161.25;4215600;28;19977;-63
2021/12/02 09:44:47;;;;;;;;;;;;;;;19.84;42.33;101152.06;4201051;28;20395;-63
2021/12/02 09:46:48;;;;;;;;;;;;;;;19.86;42.47;101163.75;4208406;28;19920;-62
2021/12/02 09:48:49;;;;;;;;;;;;;;;19.85;42.25;101162.09;4215823;28;19973;-63
2021/12/02 09:51:00;;;;;;;;;;;;;;;19.85;42.49;101145.44;4217787;28;20317;-63
2021/12/02 09:53:11;;;;;;;;;;;;;;;19.85;42.26;101142.66;4201012;28;19921;-62
2021/12/02 09:55:20;;;;;;;;;;;;;;;19.84;42.21;101149.28;4201969;28;20375;-62
2021/12/02 09:57:26;;;;;;;;;;;;;;;19.84;42.24;101132.63;4201211;28;19924;-63
2021/12/02 10:01:44;;;;;;;;;;;;;;;19.84;42.49;101127.06;4207176;28;19924;-63
2021/12/02 10:03:48;;;;;;;;;;;;;;;19.85;42.39;101126.00;4217284;28;19924;-64
2021/12/02 10:05:58;;;;;;;;;;;;;;;19.85;42.23;101118.50;4200761;28;19920;-64
2021/12/02 10:08:04;;;;;;;;;;;;;;;19.84;42.52;101115.97;4200486;28;19916;-64
2021/12/02 10:10:32;;;;;;;;;;;;;;;19.84;42.16;101115.97;4212180;28;20512;-64
2021/12/02 10:12:35;;;;;;;;;;;;;;;19.83;42.43;101103.19;4210225;27;19981;-64
2021/12/02 10:14:41;;;;;;;;;;;;;;;19.83;42.25;101125.41;4209367;28;19965;-63
2021/12/02 10:16:45;;;;;;;;;;;;;;;19.82;42.38;101107.06;4208928;28;20321;-63
2021/12/02 10:18:53;;;;;;;;;;;;;;;19.82;42.18;101109.84;4216162;28;19920;-64
2021/12/02 10:20:55;;;;;;;;;;;;;;;19.82;42.39;101102.34;4217201;28;20416;-62
2021/12/02 10:23:07;;;;;;;;;;;;;;;19.82;42.27;101101.53;4214067;28;19924;-63
2021/12/02 10:25:08;;;;;;;;;;;;;;;19.83;42.45;101103.19;4206197;28;19916;-63
2021/12/02 10:27:10;;;;;;;;;;;;;;;19.80;42.44;101105.41;4215035;28;19924;-64
2021/12/02 10:29:13;;;;;;;;;;;;;;;19.81;42.35;101106.25;4213497;28;19966;-64
2021/12/02 10:31:26;;;;;;;;;;;;;;;19.80;42.35;101091.53;4200439;28;19977;-65
2021/12/02 10:33:32;;;;;;;;;;;;;;;19.82;42.32;101085.69;4203093;28;19974;-64
2021/12/02 10:35:40;;;;;;;;;;;;;;;19.79;42.41;101081.53;4200401;28;19916;-63
2021/12/02 10:37:42;;;;;;;;;;;;;;;19.78;42.59;101079.84;4200962;28;19924;-64
2021/12/02 10:39:52;;;;;;;;;;;;;;;19.79;42.38;101087.09;4207017;28;19920;-63
2021/12/02 10:42:07;;;;;;;;;;;;;;;19.79;42.36;101080.66;4204895;28;19966;-64